Time;durP1;ratioP1;P1;durP2;ratioP2;P2;SDS_P1;SDS_P2;PMS_P1;PMS_P2;Temp;Humidity;BMP_temperature;BMP_pressure;BME280_temperature;BME280_humidity;BME280_pressure;Samples;Min_cycle;Max_cycle;Signal;HPM_P1;HPM_P2
2023/01/07 00:01:15;;;;;;;9.50;6.03;;;;;;;7.53;79.87;98901.69;4983915;28;20476;-67
2023/01/07 00:03:41;;;;;;;10.45;5.75;;;;;;;7.53;79.84;98904.41;5005529;28;20054;-66
2023/01/07 00:06:09;;;;;;;10.02;5.63;;;;;;;7.53;79.77;98895.41;4996137;28;20444;-68
2023/01/07 00:08:37;;;;;;;8.40;5.70;;;;;;;7.52;79.74;98896.50;4978586;28;20038;-66
2023/01/07 00:11:05;;;;;;;9.23;5.95;;;;;;;7.51;79.65;98897.59;4970619;28;20023;-67
2023/01/07 00:13:30;;;;;;;8.32;5.70;;;;;;;7.53;79.68;98903.59;4983263;28;20038;-66
2023/01/07 00:16:11;;;;;;;9.55;5.22;;;;;;;7.51;79.30;98894.84;5022365;28;20039;-66
2023/01/07 00:18:37;;;;;;;8.18;5.35;;;;;;;7.49;79.97;98900.56;4994556;28;20042;-66
2023/01/07 00:21:06;;;;;;;7.68;4.97;;;;;;;7.49;79.60;98899.75;4969225;28;20126;-66
2023/01/07 00:23:33;;;;;;;8.07;5.00;;;;;;;7.47;79.82;98900.00;5005763;28;20086;-66
2023/01/07 00:26:02;;;;;;;7.35;4.80;;;;;;;7.45;79.57;98903.00;5048027;28;20477;-66
2023/01/07 00:28:27;;;;;;;8.45;5.30;;;;;;;7.45;79.64;98903.00;5070604;28;20024;-66
2023/01/07 00:31:07;;;;;;;9.20;5.25;;;;;;;7.43;79.35;98907.06;4973882;28;20035;-66
2023/01/07 00:33:40;;;;;;;;;;;;;;;7.44;79.48;98908.72;4976121;28;20038;-66
2023/01/07 00:36:07;;;;;;;6.55;4.55;;;;;;;7.45;79.61;98907.63;4970855;28;20406;-66
2023/01/07 00:38:33;;;;;;;8.70;5.75;;;;;;;7.44;79.58;98906.84;4971017;28;20022;-66
2023/01/07 00:40:59;;;;;;;9.32;5.38;;;;;;;7.44;79.27;98903.25;4970872;28;20537;-66
2023/01/07 00:43:25;;;;;;;8.02;5.25;;;;;;;7.44;79.37;98903.25;4971412;28;20138;-66
2023/01/07 00:45:51;;;;;;;10.40;6.43;;;;;;;7.44;79.38;98904.09;4988300;28;20031;-67
2023/01/07 00:48:17;;;;;;;7.63;5.47;;;;;;;7.48;78.96;98906.31;4952659;28;20059;-66
2023/01/07 00:50:43;;;;;;;9.63;5.65;;;;;;;7.47;79.48;98910.94;4981199;28;20022;-67
2023/01/07 00:53:10;;;;;;;8.13;5.45;;;;;;;7.51;79.58;98917.50;4987377;28;20476;-66
2023/01/07 00:55:36;;;;;;;8.00;5.78;;;;;;;7.54;79.58;98913.44;4969764;28;20051;-66
2023/01/07 00:58:02;;;;;;;8.13;5.90;;;;;;;7.57;79.19;98910.16;4970141;28;20031;-66
2023/01/07 01:00:28;;;;;;;8.27;5.72;;;;;;;7.59;79.16;98916.16;4972409;28;20031;-67
2023/01/07 01:02:53;;;;;;;7.47;5.18;;;;;;;7.61;79.45;98922.19;4969556;28;20034;-67
2023/01/07 01:05:20;;;;;;;8.93;5.97;;;;;;;7.62;78.92;98915.63;4977225;28;20467;-66
2023/01/07 01:07:45;;;;;;;9.88;7.40;;;;;;;7.65;79.05;98925.22;4969062;28;20030;-67
2023/01/07 01:10:14;;;;;;;10.27;6.50;;;;;;;7.67;79.22;98931.25;4952634;28;20079;-67
2023/01/07 01:12:40;;;;;;;9.13;5.80;;;;;;;7.68;79.38;98930.97;4969195;28;20748;-66
2023/01/07 01:15:10;;;;;;;7.88;5.05;;;;;;;7.69;79.12;98929.06;4967783;28;20027;-66
2023/01/07 01:17:36;;;;;;;7.55;4.78;;;;;;;7.68;78.88;98933.69;4969138;28;20038;-67
2023/01/07 01:20:02;;;;;;;5.85;4.35;;;;;;;7.67;79.20;98937.50;4968989;28;20035;-66
2023/01/07 01:22:27;;;;;;;7.80;4.70;;;;;;;7.64;78.49;98929.03;4967692;28;20391;-66
2023/01/07 01:24:53;;;;;;;8.48;5.15;;;;;;;7.63;78.54;98939.13;4970738;28;20023;-66
2023/01/07 01:27:19;;;;;;;8.27;5.40;;;;;;;7.58;79.18;98928.16;4969274;28;20040;-66
2023/01/07 01:29:44;;;;;;;8.85;5.82;;;;;;;7.56;78.99;98930.34;4965196;28;20030;-67
2023/01/07 01:32:09;;;;;;;8.23;5.88;;;;;;;7.52;78.58;98938.25;4967995;28;20478;-67
2023/01/07 01:34:35;;;;;;;8.55;5.63;;;;;;;7.47;78.61;98940.13;4968466;28;20398;-67
2023/01/07 01:37:01;;;;;;;7.97;5.90;;;;;;;7.44;78.46;98942.31;4968097;28;20062;-68
2023/01/07 01:39:27;;;;;;;8.30;5.50;;;;;;;7.42;78.35;98946.38;4968484;28;20479;-67
2023/01/07 01:41:52;;;;;;;10.25;5.95;;;;;;;7.40;78.91;98949.38;4968247;28;20083;-67
2023/01/07 01:44:47;;;;;;;9.02;6.40;;;;;;;7.41;78.36;98947.44;4968751;28;20057;-67
2023/01/07 01:47:19;;;;;;;9.45;5.88;;;;;;;7.42;78.78;98949.94;4967041;28;20026;-67
2023/01/07 01:49:50;;;;;;;8.13;5.57;;;;;;;7.41;78.46;98945.56;4967217;28;21221;-67
2023/01/07 01:52:19;;;;;;;9.80;6.93;;;;;;;7.38;78.57;98929.72;4968367;28;20039;-67
2023/01/07 01:54:51;;;;;;;9.57;6.45;;;;;;;7.32;78.77;98933.50;4968031;28;20026;-67
2023/01/07 01:57:19;;;;;;;9.90;6.65;;;;;;;7.30;78.36;98938.38;4966966;28;20063;-67
2023/01/07 01:59:49;;;;;;;9.25;6.75;;;;;;;7.24;78.06;98932.09;4966487;28;20498;-66
2023/01/07 02:02:18;;;;;;;15.38;9.48;;;;;;;7.21;78.33;98929.03;4966581;28;20122;-67
2023/01/07 02:04:44;;;;;;;15.73;9.23;;;;;;;7.17;78.03;98925.19;4967897;28;20039;-67
2023/01/07 02:07:15;;;;;;;13.60;10.07;;;;;;;7.13;78.24;98930.38;4969695;28;20022;-65
2023/01/07 02:09:40;;;;;;;9.98;7.25;;;;;;;7.08;78.41;98916.69;4964642;28;20042;-66
2023/01/07 02:12:30;;;;;;;13.68;8.07;;;;;;;7.04;78.11;98923.75;5003604;28;20390;-66
2023/01/07 02:15:19;;;;;;;;;;;;;;;6.98;78.15;98926.44;4973191;28;20073;-67
2023/01/07 02:18:04;;;;;;;10.85;6.55;;;;;;;6.91;77.93;98927.75;4964075;28;19971;-66
2023/01/07 02:20:36;;;;;;;12.00;7.78;;;;;;;6.83;77.98;98921.69;4972205;28;20114;-66
2023/01/07 02:23:23;;;;;;;13.90;8.93;;;;;;;6.75;78.04;98929.53;4966216;28;20023;-67
2023/01/07 02:26:07;;;;;;;11.75;8.75;;;;;;;6.67;77.92;98928.91;4967509;28;20364;-66
2023/01/07 02:28:51;;;;;;;11.45;7.32;;;;;;;6.64;78.03;98931.34;4965417;28;20503;-65
2023/01/07 02:31:25;;;;;;;15.05;8.82;;;;;;;6.62;78.32;98936.22;4965980;28;20030;-66
2023/01/07 02:33:55;;;;;;;11.57;7.53;;;;;;;6.58;77.97;98927.72;4967515;28;20113;-66
2023/01/07 02:36:34;;;;;;;11.18;7.32;;;;;;;6.54;78.15;98919.25;4967226;28;20475;-66
2023/01/07 02:39:09;;;;;;;11.30;8.23;;;;;;;6.52;77.59;98926.88;4968139;28;20081;-66
2023/01/07 02:42:06;;;;;;;12.18;7.50;;;;;;;6.50;78.04;98923.56;4965490;28;20030;-66
2023/01/07 02:44:47;;;;;;;12.05;7.03;;;;;;;6.48;77.56;98914.03;4967819;28;20023;-67
2023/01/07 02:47:19;;;;;;;10.32;7.22;;;;;;;6.47;78.30;98915.91;4967348;28;20022;-67
2023/01/07 02:49:47;;;;;;;19.75;10.02;;;;;;;6.47;78.33;98920.56;4967158;28;20023;-67
2023/01/07 02:52:22;;;;;;;16.63;8.98;;;;;;;6.48;78.27;98917.56;4965524;28;20029;-66
2023/01/07 02:55:09;;;;;;;14.80;10.20;;;;;;;6.52;78.30;98931.50;4963975;28;20039;-66
2023/01/07 02:58:10;;;;;;;13.52;8.88;;;;;;;6.56;78.24;98918.97;4965871;28;20027;-66
2023/01/07 03:00:38;;;;;;;11.40;7.60;;;;;;;6.62;78.20;98925.31;4967137;28;20039;-66
2023/01/07 03:03:41;;;;;;;17.58;11.07;;;;;;;6.65;78.46;98919.34;4965602;28;20051;-66
2023/01/07 03:06:53;;;;;;;17.02;9.50;;;;;;;6.67;78.53;98919.91;4973965;28;20035;-66
2023/01/07 03:09:33;;;;;;;46.35;20.98;;;;;;;6.70;77.95;98924.84;4974817;28;20045;-66
2023/01/07 03:12:18;;;;;;;42.03;21.05;;;;;;;6.69;78.36;98926.75;4981224;28;20029;-66
2023/01/07 03:14:46;;;;;;;24.23;13.77;;;;;;;6.68;78.40;98927.81;4966955;28;20057;-66
2023/01/07 03:17:19;;;;;;;21.13;13.57;;;;;;;6.70;78.39;98924.84;4966844;28;20077;-67
2023/01/07 03:19:49;;;;;;;26.25;14.38;;;;;;;6.72;78.31;98930.03;4967202;28;20670;-66
2023/01/07 03:22:18;;;;;;;47.05;23.30;;;;;;;6.73;78.24;98928.97;4965665;28;20031;-66
2023/01/07 03:24:47;;;;;;;32.03;17.40;;;;;;;6.72;78.86;98922.69;4974167;28;20027;-67
2023/01/07 03:27:16;;;;;;;23.58;14.52;;;;;;;6.71;78.51;98926.50;4966025;28;20487;-66
2023/01/07 03:29:42;;;;;;;27.52;14.45;;;;;;;6.69;78.11;98929.47;4966077;28;20076;-66
2023/01/07 03:32:14;;;;;;;24.42;16.48;;;;;;;6.67;78.25;98922.66;4950097;28;20035;-66
2023/01/07 03:34:41;;;;;;;25.48;16.05;;;;;;;6.64;78.25;98917.72;4965624;28;20077;-66
2023/01/07 03:37:12;;;;;;;22.30;14.55;;;;;;;6.60;77.93;98917.38;4965305;28;20031;-66
2023/01/07 03:39:39;;;;;;;24.95;15.07;;;;;;;6.57;78.21;98917.91;4966228;28;20471;-66
2023/01/07 03:44:49;;;;;;;31.50;21.00;;;;;;;6.49;78.28;98926.56;4966430;28;20134;-66
2023/01/07 03:47:15;;;;;;;35.58;21.52;;;;;;;6.48;78.22;98930.38;4974518;28;20129;-66
2023/01/07 03:49:40;;;;;;;34.22;20.27;;;;;;;6.45;77.81;98928.16;4968088;28;20034;-66
2023/01/07 03:52:05;;;;;;;28.83;18.08;;;;;;;6.45;77.88;98925.44;4967587;28;20038;-66
2023/01/07 03:54:31;;;;;;;56.85;29.38;;;;;;;6.44;78.29;98915.63;4967260;28;20031;-66
2023/01/07 03:56:56;;;;;;;53.38;29.80;;;;;;;6.42;78.29;98923.22;4967056;28;20502;-67
2023/01/07 03:59:22;;;;;;;39.65;22.92;;;;;;;6.40;78.20;98918.03;4967243;28;20146;-66
2023/01/07 04:01:47;;;;;;;33.80;21.17;;;;;;;6.40;78.26;98924.31;4967682;28;20129;-66
2023/01/07 04:04:12;;;;;;;31.63;20.38;;;;;;;6.41;78.28;98925.13;4973253;28;20472;-66
2023/01/07 04:06:38;;;;;;;30.88;18.80;;;;;;;6.41;78.44;98925.13;4967506;28;20026;-66
2023/01/07 04:09:03;;;;;;;35.03;22.55;;;;;;;6.42;78.33;98921.31;4970839;28;20027;-66
2023/01/07 04:11:29;;;;;;;32.50;21.13;;;;;;;6.42;78.41;98925.94;4980803;28;20098;-66
2023/01/07 04:13:56;;;;;;;28.02;19.02;;;;;;;6.43;78.39;98939.31;4973615;28;20039;-67
2023/01/07 04:16:21;;;;;;;29.15;17.77;;;;;;;6.45;78.57;98936.34;5000350;28;20085;-66
2023/01/07 04:18:46;;;;;;;34.53;20.10;;;;;;;6.46;78.40;98927.88;4980327;28;20421;-66
2023/01/07 04:21:12;;;;;;;39.63;22.20;;;;;;;6.47;78.30;98923.28;4973528;28;20055;-67
2023/01/07 04:23:37;;;;;;;29.63;17.60;;;;;;;6.47;78.62;98926.81;4973341;28;20068;-66
2023/01/07 04:26:03;;;;;;;32.53;19.45;;;;;;;6.48;78.27;98919.47;4974089;28;20022;-66
2023/01/07 04:28:28;;;;;;;35.15;20.98;;;;;;;6.50;78.27;98920.03;4971375;28;20041;-66
2023/01/07 04:30:53;;;;;;;30.63;19.10;;;;;;;6.48;78.06;98924.94;4973861;28;20019;-66
2023/01/07 04:33:19;;;;;;;31.15;20.30;;;;;;;6.46;78.43;98924.34;4974378;28;20156;-66
2023/01/07 04:35:45;;;;;;;29.33;19.77;;;;;;;6.47;78.47;98923.28;4973167;28;20019;-66
2023/01/07 04:38:11;;;;;;;31.65;19.15;;;;;;;6.42;78.39;98921.31;4973221;28;20109;-66
2023/01/07 04:40:36;;;;;;;28.77;18.60;;;;;;;6.40;78.17;98926.19;4974358;28;20102;-66
2023/01/07 04:43:02;;;;;;;29.15;18.20;;;;;;;6.38;78.45;98931.91;4973407;28;20027;-66
2023/01/07 04:45:27;;;;;;;31.90;18.52;;;;;;;6.36;78.17;98931.34;4973925;28;20039;-66
2023/01/07 04:47:56;;;;;;;31.05;19.17;;;;;;;6.33;78.48;98929.13;4974152;28;20035;-66
2023/01/07 04:50:22;;;;;;;29.90;17.77;;;;;;;6.32;78.24;98932.09;4973716;28;20069;-66
2023/01/07 04:52:47;;;;;;;28.77;18.42;;;;;;;6.31;78.47;98933.22;4972595;28;20038;-66
2023/01/07 04:55:13;;;;;;;29.05;17.85;;;;;;;6.31;78.52;98925.84;4973895;28;20410;-66
2023/01/07 04:57:38;;;;;;;35.78;20.52;;;;;;;6.33;78.39;98929.13;5011468;28;20029;-66
2023/01/07 05:00:05;;;;;;;31.60;19.38;;;;;;;6.34;78.31;98940.84;5017545;28;20031;-66
2023/01/07 05:02:31;;;;;;;29.08;19.42;;;;;;;6.35;78.76;98931.59;4970484;28;20062;-65
2023/01/07 05:04:56;;;;;;;28.98;17.65;;;;;;;6.36;78.71;98933.22;5001433;28;20052;-67
2023/01/07 05:07:21;;;;;;;27.90;18.25;;;;;;;6.38;78.53;98937.38;5018438;28;20398;-66
2023/01/07 05:09:47;;;;;;;27.63;17.55;;;;;;;6.39;78.46;98938.16;4972938;28;20107;-66
2023/01/07 05:12:12;;;;;;;27.17;17.13;;;;;;;6.42;78.26;98937.66;4973475;28;20030;-67
2023/01/07 05:14:38;;;;;;;25.30;17.40;;;;;;;6.44;78.57;98938.22;4973622;28;20509;-66
2023/01/07 05:17:03;;;;;;;29.52;18.20;;;;;;;6.45;78.27;98939.06;4973357;28;20117;-67
2023/01/07 05:19:28;;;;;;;26.55;17.00;;;;;;;6.47;78.44;98943.16;4972828;28;20026;-66
2023/01/07 05:21:54;;;;;;;28.73;19.02;;;;;;;6.52;78.60;98947.84;5003048;28;20535;-66
2023/01/07 05:24:19;;;;;;;29.02;18.38;;;;;;;6.53;78.58;98936.69;4970403;28;20031;-66
2023/01/07 05:26:44;;;;;;;30.75;19.52;;;;;;;6.56;78.61;98940.78;4968058;28;20459;-66
2023/01/07 05:29:10;;;;;;;30.25;18.85;;;;;;;6.58;78.49;98941.34;4971002;28;20031;-67
2023/01/07 05:31:35;;;;;;;27.65;19.38;;;;;;;6.61;78.54;98940.03;4975498;28;20039;-66
2023/01/07 05:34:01;;;;;;;29.23;19.23;;;;;;;6.62;78.56;98934.31;4970431;28;20129;-66
2023/01/07 05:36:26;;;;;;;27.77;17.15;;;;;;;6.64;78.85;98934.88;5009129;28;20366;-66
2023/01/07 05:38:52;;;;;;;28.20;18.05;;;;;;;6.64;78.67;98931.34;4970838;28;20022;-66
2023/01/07 05:41:17;;;;;;;24.80;16.88;;;;;;;6.64;78.57;98934.06;4970479;28;20039;-67
2023/01/07 05:43:42;;;;;;;30.30;19.13;;;;;;;6.65;78.65;98947.41;4969378;28;20106;-66
2023/01/07 05:46:08;;;;;;;27.60;17.75;;;;;;;6.67;78.56;98945.25;4970485;28;20035;-67
2023/01/07 05:48:33;;;;;;;30.17;19.38;;;;;;;6.67;78.85;98933.56;4971056;28;20030;-66
2023/01/07 05:50:59;;;;;;;27.70;18.20;;;;;;;6.68;78.54;98937.91;4970497;28;20114;-67
2023/01/07 05:53:24;;;;;;;30.50;19.48;;;;;;;6.68;78.66;98937.91;5009448;28;20544;-66
2023/01/07 05:55:58;;;;;;;27.73;18.58;;;;;;;6.68;78.63;98936.00;4970239;28;20046;-66
2023/01/07 05:58:24;;;;;;;25.35;17.50;;;;;;;6.72;78.95;98940.94;4971030;28;20035;-66
2023/01/07 06:00:50;;;;;;;30.88;22.42;;;;;;;6.72;78.84;98943.66;4969109;28;20019;-66
2023/01/07 06:03:15;;;;;;;37.67;24.63;;;;;;;6.71;78.71;98940.13;5026794;28;20113;-66
2023/01/07 06:05:41;;;;;;;32.00;21.00;;;;;;;6.72;78.71;98935.50;4966763;28;20600;-67
2023/01/07 06:08:06;;;;;;;29.70;19.45;;;;;;;6.71;78.88;98934.69;4964364;28;20035;-66
2023/01/07 06:10:32;;;;;;;29.70;19.42;;;;;;;6.70;78.88;98933.03;4970390;28;20034;-66
2023/01/07 06:12:57;;;;;;;32.40;21.25;;;;;;;6.67;78.56;98939.81;4969862;28;20399;-66
2023/01/07 06:15:22;;;;;;;29.10;18.83;;;;;;;6.65;78.48;98943.88;4968055;28;20117;-66
2023/01/07 06:17:48;;;;;;;28.23;18.13;;;;;;;6.62;78.51;98938.94;4970698;28;20035;-66
2023/01/07 06:20:14;;;;;;;29.15;17.63;;;;;;;6.59;78.42;98937.53;4970557;28;20038;-66
2023/01/07 06:22:41;;;;;;;28.77;18.83;;;;;;;6.60;78.65;98933.75;4970362;28;20031;-66
2023/01/07 06:25:07;;;;;;;29.88;18.35;;;;;;;6.61;78.57;98940.84;4970250;28;20041;-66
2023/01/07 06:27:33;;;;;;;28.05;17.58;;;;;;;6.61;78.55;98946.28;4969998;28;20031;-67
2023/01/07 06:29:58;;;;;;;30.52;19.30;;;;;;;6.60;78.62;98946.56;4969525;28;20022;-66
2023/01/07 06:32:23;;;;;;;31.67;19.35;;;;;;;6.57;78.35;98949.81;4969537;28;20112;-66
2023/01/07 06:34:49;;;;;;;33.00;21.23;;;;;;;6.54;78.45;98951.97;4970476;28;20038;-66
2023/01/07 06:37:14;;;;;;;34.33;21.85;;;;;;;6.50;78.38;98947.28;4968459;28;20031;-65
2023/01/07 06:39:39;;;;;;;31.90;21.73;;;;;;;6.47;78.58;98945.88;4969610;28;20038;-66
2023/01/07 06:42:05;;;;;;;32.65;20.75;;;;;;;6.46;78.19;98946.97;4970561;28;20026;-66
2023/01/07 06:44:30;;;;;;;31.95;21.38;;;;;;;6.43;78.22;98949.41;4970253;28;20030;-67
2023/01/07 06:46:56;;;;;;;39.67;25.27;;;;;;;6.40;78.29;98948.81;4969422;28;20569;-67
2023/01/07 06:49:21;;;;;;;35.03;22.92;;;;;;;6.38;78.28;98950.16;4972120;28;20038;-66
2023/01/07 06:51:46;;;;;;;32.95;20.83;;;;;;;6.38;78.36;98952.88;4970259;28;20483;-68
2023/01/07 06:54:12;;;;;;;31.60;20.67;;;;;;;6.38;78.42;98953.72;4970399;28;20035;-66
2023/01/07 06:56:38;;;;;;;30.67;21.27;;;;;;;6.35;78.29;98953.38;4969668;28;20130;-66
2023/01/07 06:59:03;;;;;;;34.30;23.85;;;;;;;6.33;78.92;98950.94;4966664;28;20130;-66
2023/01/07 07:01:29;;;;;;;32.83;22.88;;;;;;;6.30;78.24;98950.63;4969277;28;20041;-66
2023/01/07 07:03:54;;;;;;;29.42;21.35;;;;;;;6.28;78.75;98953.59;4969724;28;20530;-68
2023/01/07 07:06:19;;;;;;;30.83;19.75;;;;;;;6.26;78.23;98947.56;4969914;28;20035;-67
2023/01/07 07:08:45;;;;;;;34.03;20.83;;;;;;;6.24;78.40;98947.84;4969856;28;20030;-66
2023/01/07 07:11:10;;;;;;;32.22;20.50;;;;;;;6.22;78.15;98949.16;4969671;28;20122;-66
2023/01/07 07:13:37;;;;;;;36.30;23.88;;;;;;;6.21;78.33;98956.53;5000263;28;20063;-67
2023/01/07 07:16:03;;;;;;;39.13;24.90;;;;;;;6.21;78.47;98959.25;5025165;28;20122;-66
2023/01/07 07:18:29;;;;;;;45.08;28.35;;;;;;;6.21;78.48;98961.97;4965619;28;20114;-66
2023/01/07 07:20:55;;;;;;;43.83;29.67;;;;;;;6.20;78.34;98954.88;4979194;28;20042;-66
2023/01/07 07:23:20;;;;;;;44.28;29.38;;;;;;;6.18;78.28;98965.19;4969938;28;20434;-66
2023/01/07 07:25:46;;;;;;;40.35;27.55;;;;;;;6.17;78.45;98969.00;4968885;28;20046;-67
2023/01/07 07:28:11;;;;;;;37.00;23.60;;;;;;;6.14;78.26;98966.78;4968890;28;20050;-66
2023/01/07 07:30:37;;;;;;;43.60;29.67;;;;;;;6.11;77.66;98970.81;5022713;28;20200;-67
2023/01/07 07:33:03;;;;;;;36.95;25.70;;;;;;;6.10;78.48;98976.53;4970089;28;20072;-66
2023/01/07 07:35:30;;;;;;;37.90;25.65;;;;;;;6.07;78.07;98968.88;4970986;28;20121;-66
2023/01/07 07:37:55;;;;;;;35.88;23.83;;;;;;;6.04;78.13;98970.22;4977093;28;20037;-67
2023/01/07 07:40:21;;;;;;;34.30;21.70;;;;;;;6.01;78.24;98976.16;5024354;28;20024;-66
2023/01/07 07:42:46;;;;;;;34.35;22.38;;;;;;;5.99;77.96;98970.13;5066912;28;20396;-67
2023/01/07 07:45:14;;;;;;;34.10;21.70;;;;;;;5.97;78.35;98964.09;5061360;28;20029;-66
2023/01/07 07:47:40;;;;;;;32.85;21.63;;;;;;;5.96;78.25;98970.63;4968630;28;20098;-66
2023/01/07 07:50:06;;;;;;;31.05;21.73;;;;;;;5.96;78.06;98974.16;4968687;28;20127;-66
2023/01/07 07:52:31;;;;;;;33.70;21.92;;;;;;;5.94;78.31;98975.50;5026378;28;20139;-66
2023/01/07 07:54:56;;;;;;;34.33;22.50;;;;;;;5.92;78.12;98964.84;5057017;28;20066;-66
2023/01/07 07:57:22;;;;;;;36.15;24.25;;;;;;;5.93;78.27;98966.50;4968200;28;20034;-66
2023/01/07 07:59:47;;;;;;;35.90;24.10;;;;;;;5.95;78.54;98964.34;4969316;28;20077;-66
2023/01/07 08:02:13;;;;;;;42.60;28.80;;;;;;;6.00;78.39;98965.47;4969935;28;20106;-66
2023/01/07 08:04:39;;;;;;;39.13;26.92;;;;;;;6.02;78.54;98968.81;4969234;28;20019;-66
2023/01/07 08:07:05;;;;;;;39.38;27.83;;;;;;;6.05;78.45;98969.16;4969311;28;20057;-66
2023/01/07 08:09:30;;;;;;;33.95;21.83;;;;;;;6.07;78.52;98964.28;4969462;28;20552;-66
2023/01/07 08:11:55;;;;;;;34.20;21.27;;;;;;;6.11;78.79;98961.84;4968665;28;20041;-66
2023/01/07 08:14:21;;;;;;;35.25;21.52;;;;;;;6.14;78.90;98960.50;4968281;28;20034;-66
2023/01/07 08:16:46;;;;;;;36.30;22.38;;;;;;;6.16;78.73;98967.34;4969288;28;20137;-67
2023/01/07 08:19:12;;;;;;;37.38;22.05;;;;;;;6.21;78.96;98963.84;4965066;28;20031;-66
2023/01/07 08:21:38;;;;;;;32.63;21.80;;;;;;;6.24;79.49;98966.91;4968511;28;20110;-66
2023/01/07 08:24:04;;;;;;;33.45;22.95;;;;;;;6.28;78.99;98959.03;4969646;28;20113;-66
2023/01/07 08:26:29;;;;;;;30.10;21.08;;;;;;;6.31;79.19;98949.56;4969159;28;20039;-66
2023/01/07 08:28:54;;;;;;;33.38;21.10;;;;;;;6.36;79.60;98958.59;4969206;28;20026;-66
2023/01/07 08:31:20;;;;;;;29.35;21.30;;;;;;;6.40;79.43;98953.44;4968344;28;20042;-67
2023/01/07 08:33:45;;;;;;;33.65;22.75;;;;;;;6.43;79.61;98949.41;4969306;28;20034;-66
2023/01/07 08:36:11;;;;;;;34.80;25.25;;;;;;;6.49;79.39;98959.28;4968779;28;20054;-65
2023/01/07 08:38:36;;;;;;;34.70;24.25;;;;;;;6.55;79.07;98961.78;5004726;28;20397;-67
2023/01/07 08:41:03;;;;;;;35.65;22.15;;;;;;;6.62;79.65;98955.31;4970965;28;20038;-67
2023/01/07 08:43:29;;;;;;;35.55;21.70;;;;;;;6.69;79.63;98959.47;4969177;28;20070;-66
2023/01/07 08:45:54;;;;;;;35.55;22.63;;;;;;;6.75;79.67;98952.13;4974216;28;20052;-66
2023/01/07 08:48:20;;;;;;;31.33;19.10;;;;;;;6.80;79.60;98954.91;5070132;28;20381;-66
2023/01/07 08:50:51;;;;;;;33.17;20.60;;;;;;;6.84;79.84;98953.31;5070022;28;20399;-66
2023/01/07 08:53:17;;;;;;;33.40;21.45;;;;;;;6.91;79.78;98958.56;4967962;28;20035;-65
2023/01/07 08:55:42;;;;;;;31.73;19.58;;;;;;;6.97;79.68;98959.44;4968715;28;20114;-66
2023/01/07 08:58:08;;;;;;;34.38;21.25;;;;;;;7.03;79.79;98957.56;4972318;28;21013;-66
2023/01/07 09:00:33;;;;;;;31.73;20.10;;;;;;;7.05;79.94;98956.22;4970468;28;20031;-66
2023/01/07 09:02:58;;;;;;;33.42;21.00;;;;;;;7.08;79.79;98961.16;4969753;28;20156;-66
2023/01/07 09:05:24;;;;;;;31.42;19.77;;;;;;;7.10;79.94;98955.44;4970595;28;20426;-66
2023/01/07 09:07:53;;;;;;;30.52;19.08;;;;;;;7.10;79.85;98949.97;4975365;28;20419;-66
2023/01/07 09:10:19;;;;;;;32.17;20.92;;;;;;;7.12;79.95;98950.53;4971658;28;20041;-66
2023/01/07 09:12:44;;;;;;;31.05;20.48;;;;;;;7.12;79.79;98940.47;5000073;28;20024;-67
2023/01/07 09:15:10;;;;;;;27.70;18.77;;;;;;;7.13;80.20;98941.28;4986820;28;20050;-67
2023/01/07 09:17:36;;;;;;;31.55;18.23;;;;;;;7.14;79.84;98945.66;4971678;28;20038;-66
2023/01/07 09:20:03;;;;;;;28.67;18.73;;;;;;;7.17;80.19;98947.84;4969645;28;20038;-66
2023/01/07 09:22:33;;;;;;;29.75;19.02;;;;;;;7.17;79.54;98936.09;4971266;28;20035;-66
2023/01/07 09:24:59;;;;;;;30.73;21.40;;;;;;;7.20;80.01;98943.75;4976385;28;20498;-66
2023/01/07 09:27:25;;;;;;;27.80;18.10;;;;;;;7.23;79.91;98946.81;4985312;28;20035;-66
2023/01/07 09:29:52;;;;;;;35.80;20.25;;;;;;;7.25;80.05;98944.66;5032642;28;20057;-66
2023/01/07 09:32:17;;;;;;;29.23;18.58;;;;;;;7.30;79.94;98947.41;5016288;28;20031;-67
2023/01/07 09:34:43;;;;;;;25.83;17.45;;;;;;;7.33;80.13;98948.78;5006709;28;20045;-66
2023/01/07 09:37:08;;;;;;;27.77;17.92;;;;;;;7.36;79.88;98945.53;4985041;28;20081;-67
2023/01/07 09:39:34;;;;;;;25.42;16.42;;;;;;;7.38;80.57;98948.81;4971021;28;20039;-67
2023/01/07 09:42:19;;;;;;;25.67;18.60;;;;;;;7.39;79.97;98938.72;4988994;28;20041;-67
2023/01/07 09:45:17;;;;;;;23.83;16.48;;;;;;;7.40;80.14;98940.34;4968231;28;20030;-65
2023/01/07 09:47:47;;;;;;;25.80;16.98;;;;;;;7.41;79.89;98923.72;4967925;28;20062;-66
2023/01/07 09:50:31;;;;;;;23.42;15.23;;;;;;;7.42;80.13;98919.06;4987143;28;20074;-66
2023/01/07 09:53:04;;;;;;;21.23;14.52;;;;;;;7.44;79.83;98917.75;4984313;28;20037;-66
2023/01/07 09:55:37;;;;;;;25.58;16.63;;;;;;;7.48;79.88;98917.22;4982019;28;20108;-67
2023/01/07 09:58:04;;;;;;;22.77;16.63;;;;;;;7.51;79.46;98909.31;4984011;28;20038;-67
2023/01/07 10:00:34;;;;;;;25.98;17.02;;;;;;;7.56;79.59;98917.53;4963540;28;20081;-67
2023/01/07 10:03:29;;;;;;;25.92;17.20;;;;;;;7.60;79.91;98917.81;4968129;28;20058;-68
2023/01/07 10:06:08;;;;;;;24.27;16.58;;;;;;;7.64;79.90;98921.66;4969503;28;20077;-69
2023/01/07 10:09:06;;;;;;;28.52;18.15;;;;;;;7.66;79.41;98913.22;4969031;28;20046;-68
2023/01/07 10:11:39;;;;;;;25.17;16.17;;;;;;;7.71;79.48;98905.84;4968182;28;20466;-67
2023/01/07 10:14:39;;;;;;;26.23;16.00;;;;;;;7.75;79.48;98906.97;4968008;28;20022;-66
2023/01/07 10:17:22;;;;;;;24.15;16.05;;;;;;;7.83;79.31;98905.63;4968317;28;20080;-67
2023/01/07 10:20:02;;;;;;;23.27;12.90;;;;;;;7.86;79.29;98905.09;4981214;28;20070;-67
2023/01/07 10:22:49;;;;;;;22.52;13.55;;;;;;;7.90;79.08;98902.66;5008211;28;20032;-67
2023/01/07 10:25:21;;;;;;;24.77;14.63;;;;;;;7.96;79.12;98903.50;5066592;28;20199;-67
2023/01/07 10:27:50;;;;;;;18.60;12.32;;;;;;;8.00;79.24;98904.59;4968009;28;20081;-67
2023/01/07 10:30:23;;;;;;;18.00;11.52;;;;;;;8.02;79.29;98905.16;4967734;28;20486;-66
2023/01/07 10:32:57;;;;;;;19.33;12.20;;;;;;;8.06;79.26;98898.06;4968509;28;20050;-67
2023/01/07 10:35:26;;;;;;;19.58;12.00;;;;;;;8.10;78.82;98895.63;4969227;28;20046;-67
2023/01/07 10:37:56;;;;;;;27.30;15.98;;;;;;;8.12;78.99;98904.38;4969172;28;20031;-64
2023/01/07 10:40:43;;;;;;;17.92;11.40;;;;;;;8.15;78.72;98904.63;4967544;28;20479;-67
2023/01/07 10:43:17;;;;;;;18.27;11.15;;;;;;;8.17;78.28;98897.00;4969123;28;20038;-66
2023/01/07 10:45:47;;;;;;;24.05;15.90;;;;;;;8.20;78.54;98898.38;4988678;28;20547;-65
2023/01/07 10:48:37;;;;;;;28.83;17.55;;;;;;;8.22;79.05;98896.19;5009360;28;20413;-67
2023/01/07 10:51:32;;;;;;;23.17;16.58;;;;;;;8.28;78.64;98895.13;4966946;28;20122;-67
2023/01/07 10:54:31;;;;;;;18.35;12.63;;;;;;;8.31;79.01;98899.22;4993571;28;20054;-66
2023/01/07 10:57:04;;;;;;;18.13;10.48;;;;;;;8.31;78.61;98894.59;5052728;28;20044;-67
2023/01/07 10:59:30;;;;;;;13.43;9.55;;;;;;;8.30;77.46;98892.09;5018180;28;20427;-67
2023/01/07 11:01:57;;;;;;;16.00;11.13;;;;;;;8.29;77.62;98890.47;4966952;28;20407;-66
2023/01/07 11:04:24;;;;;;;13.77;10.23;;;;;;;8.28;78.42;98884.19;4967326;28;20065;-66
2023/01/07 11:06:56;;;;;;;13.15;8.63;;;;;;;8.30;77.44;98884.75;4967735;28;20061;-66
2023/01/07 11:09:28;;;;;;;13.35;9.48;;;;;;;8.33;77.36;98878.75;4976788;28;20411;-68
2023/01/07 11:11:56;;;;;;;11.98;8.93;;;;;;;8.36;78.06;98880.09;5015366;28;20462;-68
2023/01/07 11:14:27;;;;;;;11.10;7.85;;;;;;;8.39;77.71;98885.03;4980006;28;20066;-67
2023/01/07 11:16:59;;;;;;;13.50;9.45;;;;;;;8.40;77.36;98875.72;4968453;28;20035;-67
2023/01/07 11:19:43;;;;;;;12.45;8.63;;;;;;;8.43;77.32;98874.34;4966930;28;20106;-67
2023/01/07 11:22:26;;;;;;;13.82;9.07;;;;;;;8.44;77.84;98865.91;4978697;28;20125;-67
2023/01/07 11:24:53;;;;;;;13.77;9.77;;;;;;;8.47;77.68;98868.09;5019396;28;20035;-67
2023/01/07 11:27:20;;;;;;;15.95;11.45;;;;;;;8.49;77.46;98868.66;4974264;28;20100;-67
2023/01/07 11:30:09;;;;;;;18.42;11.70;;;;;;;8.53;76.99;98858.00;4967107;28;20394;-66
2023/01/07 11:32:39;;;;;;;16.98;11.27;;;;;;;8.54;76.79;98850.63;4965559;28;20081;-67
2023/01/07 11:35:16;;;;;;;20.15;12.32;;;;;;;8.58;76.32;98854.44;4967593;28;20031;-67
2023/01/07 11:37:44;;;;;;;19.33;12.82;;;;;;;8.59;77.08;98845.97;4965616;28;20043;-66
2023/01/07 11:40:12;;;;;;;22.88;14.15;;;;;;;8.62;76.51;98842.69;4967410;28;20031;-67
2023/01/07 11:43:01;;;;;;;21.80;13.55;;;;;;;8.63;77.38;98841.59;4968008;28;20441;-68